Time;durP1;ratioP1;P1;durP2;ratioP2;P2;SDS_P1;SDS_P2;PMS_P1;PMS_P2;Temp;Humidity;BMP_temperature;BMP_pressure;BME280_temperature;BME280_humidity;BME280_pressure;Samples;Min_cycle;Max_cycle;Signal;HPM_P1;HPM_P2
2022/03/09 00:00:22;;;;;;;5.25;2.67;;;2.80;99.90;;;;;;5038659;28;20033;-78
2022/03/09 00:02:47;;;;;;;8.02;2.60;;;2.80;99.90;;;;;;5043713;28;20041;-79
2022/03/09 00:05:13;;;;;;;8.52;2.85;;;2.90;99.90;;;;;;5043461;28;20103;-79
2022/03/09 00:07:38;;;;;;;6.90;3.33;;;2.70;99.90;;;;;;5066420;28;20188;-78
2022/03/09 00:10:05;;;;;;;8.25;3.00;;;2.70;99.90;;;;;;5038726;28;20055;-78
2022/03/09 00:12:32;;;;;;;6.00;2.60;;;2.70;99.90;;;;;;5038150;28;20049;-78
2022/03/09 00:14:57;;;;;;;5.00;2.72;;;2.60;99.90;;;;;;5038357;28;20120;-79
2022/03/09 00:17:23;;;;;;;6.80;3.05;;;2.60;99.90;;;;;;5066979;28;20422;-78
2022/03/09 00:19:49;;;;;;;5.72;2.97;;;2.60;99.90;;;;;;5040309;28;20045;-78
2022/03/09 00:22:15;;;;;;;7.20;3.15;;;2.50;99.90;;;;;;5047371;28;20438;-78
2022/03/09 00:24:41;;;;;;;8.23;2.63;;;2.50;99.90;;;;;;5041885;28;20493;-78
2022/03/09 00:27:07;;;;;;;6.78;3.42;;;2.40;99.90;;;;;;5041850;28;20045;-78
2022/03/09 00:29:33;;;;;;;6.38;2.70;;;2.40;99.90;;;;;;5069645;28;20086;-78
2022/03/09 00:31:58;;;;;;;7.95;3.00;;;2.40;99.90;;;;;;5041302;28;20044;-78
2022/03/09 00:34:24;;;;;;;8.35;3.15;;;2.30;99.90;;;;;;5040626;28;20121;-78
2022/03/09 00:36:50;;;;;;;8.15;2.75;;;2.30;99.90;;;;;;5043563;28;20447;-78
2022/03/09 00:39:15;;;;;;;6.30;2.75;;;2.30;99.90;;;;;;5042255;28;20413;-78
2022/03/09 00:41:41;;;;;;;6.28;3.05;;;2.40;99.90;;;;;;5037647;28;20461;-78
2022/03/09 00:44:07;;;;;;;6.75;2.85;;;2.20;99.90;;;;;;5040207;28;20053;-79
2022/03/09 00:46:33;;;;;;;5.10;2.50;;;2.20;99.90;;;;;;5040565;28;20117;-79
2022/03/09 00:48:59;;;;;;;8.00;3.13;;;2.10;99.90;;;;;;5037827;28;20045;-78
2022/03/09 00:51:24;;;;;;;6.43;3.15;;;2.10;99.90;;;;;;5038315;28;20121;-78
2022/03/09 00:53:50;;;;;;;6.95;2.95;;;2.00;99.90;;;;;;5042980;28;20475;-78
2022/03/09 00:56:15;;;;;;;5.55;2.95;;;2.00;99.90;;;;;;5040032;28;20045;-78
2022/03/09 00:58:42;;;;;;;6.20;3.78;;;2.00;99.90;;;;;;5037056;28;20038;-78
2022/03/09 01:01:09;;;;;;;6.03;2.90;;;1.90;99.90;;;;;;5039678;28;20048;-78
2022/03/09 01:03:35;;;;;;;8.00;2.80;;;1.80;99.90;;;;;;5039443;28;20059;-79
2022/03/09 01:06:00;;;;;;;6.07;2.72;;;1.80;99.90;;;;;;5035924;28;20042;-78
2022/03/09 01:08:26;;;;;;;6.55;3.38;;;1.70;99.90;;;;;;5034028;28;20499;-78
2022/03/09 01:10:51;;;;;;;6.72;3.05;;;1.60;99.90;;;;;;5037088;28;20057;-79
2022/03/09 01:13:17;;;;;;;6.85;3.10;;;1.60;99.90;;;;;;5041613;28;20041;-78
2022/03/09 01:15:43;;;;;;;6.30;3.00;;;1.60;99.90;;;;;;5036307;28;20497;-78
2022/03/09 01:18:09;;;;;;;8.05;3.28;;;1.80;99.90;;;;;;5035463;28;20094;-78
2022/03/09 01:20:35;;;;;;;8.57;3.17;;;1.50;99.90;;;;;;5035770;28;20053;-78
2022/03/09 01:23:00;;;;;;;10.07;3.03;;;1.40;99.90;;;;;;5071630;28;20255;-79
2022/03/09 01:25:26;;;;;;;7.18;3.03;;;1.40;99.90;;;;;;5045593;28;20060;-79
2022/03/09 01:27:51;;;;;;;7.65;3.58;;;1.30;99.90;;;;;;5038419;28;20060;-78
2022/03/09 01:30:17;;;;;;;7.30;3.28;;;1.30;99.90;;;;;;5043988;28;20059;-78
2022/03/09 01:32:43;;;;;;;5.60;2.75;;;1.20;99.90;;;;;;5038775;28;20049;-78
2022/03/09 01:35:08;;;;;;;6.78;3.40;;;1.20;99.90;;;;;;5043943;28;20206;-78
2022/03/09 01:37:34;;;;;;;6.60;3.28;;;1.10;99.90;;;;;;5045596;28;20090;-78
2022/03/09 01:40:00;;;;;;;7.97;3.58;;;1.10;99.90;;;;;;5038021;28;20382;-78
2022/03/09 01:42:25;;;;;;;7.63;3.58;;;1.00;99.90;;;;;;5041452;28;20049;-78
2022/03/09 01:44:52;;;;;;;6.60;3.22;;;1.00;99.90;;;;;;5042232;28;20463;-78
2022/03/09 01:47:17;;;;;;;6.93;2.97;;;0.90;99.90;;;;;;5068510;28;20495;-77
2022/03/09 01:49:43;;;;;;;6.60;3.33;;;0.90;99.90;;;;;;5033344;28;20077;-78
2022/03/09 01:52:12;;;;;;;6.53;3.42;;;0.90;99.90;;;;;;5046869;28;20049;-78
2022/03/09 01:54:39;;;;;;;8.82;4.18;;;0.80;99.90;;;;;;5042676;28;20396;-78
2022/03/09 01:57:05;;;;;;;7.38;3.58;;;0.80;99.90;;;;;;5048012;28;20419;-78
2022/03/09 01:59:30;;;;;;;7.28;3.72;;;0.80;99.90;;;;;;5042377;28;20049;-78
2022/03/09 02:01:56;;;;;;;6.45;3.38;;;0.70;99.90;;;;;;5039631;28;20041;-78
2022/03/09 02:04:22;;;;;;;8.73;4.28;;;0.60;99.90;;;;;;5038719;28;20044;-78
2022/03/09 02:06:48;;;;;;;7.70;3.97;;;0.60;99.90;;;;;;5036906;28;20171;-78
2022/03/09 02:11:58;;;;;;;8.88;3.60;;;0.50;99.90;;;;;;5048265;28;20052;-78
2022/03/09 02:14:36;;;;;;;8.60;4.07;;;0.60;99.90;;;;;;5046826;28;20389;-78
2022/03/09 02:17:26;;;;;;;6.72;3.28;;;0.40;99.90;;;;;;5047204;28;20152;-78
2022/03/09 02:19:52;;;;;;;7.47;3.78;;;0.40;99.90;;;;;;5079586;28;20055;-78
2022/03/09 02:22:36;;;;;;;7.47;3.28;;;0.40;99.90;;;;;;5048596;28;20052;-78
2022/03/09 02:25:04;;;;;;;9.48;4.03;;;0.40;99.90;;;;;;5048312;28;20087;-78
2022/03/09 02:27:30;;;;;;;7.43;3.53;;;0.40;99.90;;;;;;5048173;28;20504;-78
2022/03/09 02:29:56;;;;;;;11.05;3.80;;;0.40;99.90;;;;;;5044966;28;20258;-78
2022/03/09 02:32:22;;;;;;;10.88;4.15;;;0.40;99.90;;;;;;5043705;28;20044;-78
2022/03/09 02:34:48;;;;;;;9.98;4.05;;;0.30;99.90;;;;;;5046845;28;20052;-78
2022/03/09 02:37:14;;;;;;;7.80;3.65;;;0.30;99.90;;;;;;5046851;28;20081;-78
2022/03/09 02:39:40;;;;;;;9.88;4.10;;;0.30;99.90;;;;;;5066817;28;20071;-78
2022/03/09 02:42:06;;;;;;;8.52;4.20;;;0.30;99.90;;;;;;5065108;28;20040;-78
2022/03/09 02:44:32;;;;;;;8.85;4.30;;;0.30;99.90;;;;;;5049823;28;20672;-78
2022/03/09 02:46:58;;;;;;;8.30;4.18;;;0.30;99.90;;;;;;5062662;28;20036;-78
2022/03/09 02:49:24;;;;;;;9.40;3.60;;;0.30;99.90;;;;;;5065270;28;20049;-78
2022/03/09 02:51:50;;;;;;;7.35;3.63;;;0.30;99.90;;;;;;5073477;28;20052;-78
2022/03/09 02:54:16;;;;;;;10.70;4.53;;;0.80;99.90;;;;;;5043682;28;20048;-78
2022/03/09 02:56:42;;;;;;;9.68;4.28;;;0.30;99.90;;;;;;5061492;28;20041;-78
2022/03/09 02:59:08;;;;;;;8.35;4.70;;;0.50;99.90;;;;;;5046513;28;20048;-78
2022/03/09 03:01:35;;;;;;;9.75;4.20;;;0.40;99.90;;;;;;5042184;28;20117;-78
2022/03/09 03:04:00;;;;;;;9.98;4.55;;;0.40;99.90;;;;;;5041421;28;20127;-78
2022/03/09 03:06:26;;;;;;;8.70;4.20;;;0.30;99.90;;;;;;5044508;28;20076;-78
2022/03/09 03:08:52;;;;;;;8.13;4.28;;;0.30;99.90;;;;;;5042072;28;20388;-78
2022/03/09 03:11:17;;;;;;;10.77;4.75;;;0.30;99.90;;;;;;5062939;28;20037;-78
2022/03/09 03:13:44;;;;;;;12.85;4.75;;;0.50;99.90;;;;;;5067815;28;20116;-77
2022/03/09 03:16:11;;;;;;;8.90;4.35;;;0.30;99.90;;;;;;5040022;28;20045;-77
2022/03/09 03:18:37;;;;;;;9.75;4.63;;;0.30;99.90;;;;;;5043796;28;20060;-77
2022/03/09 03:21:03;;;;;;;8.57;4.18;;;0.30;99.90;;;;;;5062674;28;20047;-77
2022/03/09 03:23:31;;;;;;;8.38;4.65;;;0.30;99.90;;;;;;5046596;28;20070;-77
2022/03/09 03:25:57;;;;;;;8.52;4.20;;;0.30;99.90;;;;;;5048623;28;20048;-77
2022/03/09 03:28:24;;;;;;;9.77;4.60;;;0.30;99.90;;;;;;5070821;28;20036;-77
2022/03/09 03:30:50;;;;;;;11.57;5.00;;;0.40;99.90;;;;;;5053054;28;20403;-77
2022/03/09 03:33:17;;;;;;;10.27;4.65;;;0.20;99.90;;;;;;5051070;28;20570;-77
2022/03/09 03:35:42;;;;;;;11.00;5.50;;;0.20;99.90;;;;;;5052688;28;20500;-77
2022/03/09 03:38:09;;;;;;;11.55;4.47;;;0.20;99.90;;;;;;5055249;28;20093;-77
2022/03/09 03:40:36;;;;;;;10.73;4.38;;;0.20;99.90;;;;;;5042501;28;20041;-77
2022/03/09 03:43:03;;;;;;;12.25;5.13;;;0.30;99.90;;;;;;5042302;28;20067;-77
2022/03/09 03:45:28;;;;;;;10.90;5.03;;;0.30;99.90;;;;;;5057750;28;20060;-77
2022/03/09 03:47:54;;;;;;;12.60;5.40;;;0.30;99.90;;;;;;5065708;28;20393;-77
2022/03/09 03:50:20;;;;;;;10.27;5.20;;;0.30;99.90;;;;;;5042109;28;20057;-78
2022/03/09 03:52:45;;;;;;;10.70;4.82;;;0.30;99.90;;;;;;5041123;28;20041;-77
2022/03/09 03:55:11;;;;;;;9.00;5.03;;;0.20;99.90;;;;;;5044212;28;20044;-77
2022/03/09 03:57:37;;;;;;;9.85;5.05;;;0.20;99.90;;;;;;5051266;28;20071;-77
2022/03/09 04:00:04;;;;;;;10.80;4.55;;;0.20;99.90;;;;;;5068928;28;20059;-78
2022/03/09 04:02:30;;;;;;;12.30;5.55;;;0.20;99.90;;;;;;5051981;28;20040;-77
2022/03/09 04:04:56;;;;;;;10.43;5.43;;;0.20;99.90;;;;;;5070072;28;20488;-77
2022/03/09 04:07:21;;;;;;;9.07;5.18;;;0.10;99.90;;;;;;5065613;28;20033;-77
2022/03/09 04:09:47;;;;;;;11.27;5.78;;;0.10;99.90;;;;;;5069508;28;20041;-77
2022/03/09 04:12:12;;;;;;;9.68;5.35;;;0.10;99.90;;;;;;5050897;28;20048;-77
2022/03/09 04:14:38;;;;;;;8.90;5.03;;;0.00;99.90;;;;;;5042567;28;20059;-77
2022/03/09 04:17:04;;;;;;;10.93;5.28;;;0.00;99.90;;;;;;5062973;28;20044;-78
2022/03/09 04:19:30;;;;;;;10.40;5.22;;;0.00;99.90;;;;;;5041543;28;20374;-77
2022/03/09 04:21:55;;;;;;;10.55;4.82;;;-0.10;99.90;;;;;;5076423;28;20484;-77
2022/03/09 04:24:22;;;;;;;12.75;5.35;;;-0.10;99.90;;;;;;5055915;28;20079;-77
2022/03/09 04:26:47;;;;;;;10.70;4.85;;;-0.10;99.90;;;;;;5043341;28;20053;-77
2022/03/09 04:29:13;;;;;;;16.98;5.25;;;-0.20;99.90;;;;;;5043184;28;20374;-77
2022/03/09 04:31:39;;;;;;;8.90;5.30;;;-0.20;99.90;;;;;;5046092;28;20109;-78
2022/03/09 04:34:05;;;;;;;10.88;5.22;;;-0.20;99.90;;;;;;5040740;28;20492;-77
2022/03/09 04:36:31;;;;;;;11.82;5.57;;;-0.20;99.90;;;;;;5049089;28;20043;-77
2022/03/09 04:38:57;;;;;;;12.32;5.78;;;-0.20;99.90;;;;;;5045047;28;20060;-77
2022/03/09 04:41:22;;;;;;;10.68;5.88;;;-0.20;99.90;;;;;;5048450;28;20131;-77
2022/03/09 04:43:48;;;;;;;9.23;5.20;;;-0.20;99.90;;;;;;5069731;28;20124;-77
2022/03/09 04:46:14;;;;;;;11.60;5.53;;;-0.30;99.90;;;;;;5068998;28;20387;-77
2022/03/09 04:48:40;;;;;;;8.98;4.63;;;-0.20;99.90;;;;;;5060245;28;20052;-77
2022/03/09 04:51:05;;;;;;;9.80;5.70;;;-0.30;99.90;;;;;;5041467;28;20385;-77
2022/03/09 04:53:31;;;;;;;11.20;5.25;;;-0.30;99.90;;;;;;5050540;28;20533;-77
2022/03/09 04:55:57;;;;;;;10.38;5.05;;;-0.30;99.90;;;;;;5044566;28;20118;-77
2022/03/09 04:58:23;;;;;;;11.00;5.90;;;-0.30;99.90;;;;;;5041896;28;20036;-77
2022/03/09 05:00:49;;;;;;;11.75;5.50;;;-0.30;99.90;;;;;;5043343;28;20052;-77
2022/03/09 05:03:15;;;;;;;11.55;5.65;;;-0.30;99.90;;;;;;5063248;28;20040;-77
2022/03/09 05:05:41;;;;;;;10.60;5.03;;;-0.40;99.90;;;;;;5049955;28;20056;-77
2022/03/09 05:08:06;;;;;;;10.63;5.15;;;-0.40;99.90;;;;;;5049987;28;20119;-77
2022/03/09 05:10:32;;;;;;;9.73;5.78;;;-0.40;99.90;;;;;;5039728;28;20473;-77
2022/03/09 05:12:58;;;;;;;11.35;5.82;;;-0.40;99.90;;;;;;5046842;28;20033;-77
2022/03/09 05:15:23;;;;;;;10.82;5.47;;;-0.40;99.90;;;;;;5045614;28;20039;-77
2022/03/09 05:17:49;;;;;;;11.07;5.82;;;-0.20;99.90;;;;;;5050119;28;20119;-77
2022/03/09 05:20:19;;;;;;;11.35;5.63;;;-0.50;99.90;;;;;;5047085;28;20041;-77
2022/03/09 05:22:45;;;;;;;12.05;5.63;;;-0.50;99.90;;;;;;5067285;28;20123;-77
2022/03/09 05:25:11;;;;;;;11.80;5.60;;;-0.50;99.90;;;;;;5046993;28;20479;-77
2022/03/09 05:27:37;;;;;;;10.48;5.50;;;-0.50;99.90;;;;;;5065639;28;20044;-77
2022/03/09 05:30:03;;;;;;;10.98;5.82;;;-0.50;99.90;;;;;;5067145;28;20071;-77
2022/03/09 05:32:29;;;;;;;10.93;5.45;;;-0.50;99.90;;;;;;5047198;28;20037;-77
2022/03/09 05:34:55;;;;;;;12.05;6.28;;;-0.60;99.90;;;;;;5067183;28;20044;-78
2022/03/09 05:37:22;;;;;;;11.73;6.53;;;-0.60;99.90;;;;;;5046386;28;20041;-78
2022/03/09 05:39:48;;;;;;;12.35;5.85;;;-0.60;99.90;;;;;;5060145;28;20500;-78
2022/03/09 05:42:14;;;;;;;10.48;5.70;;;-0.60;99.90;;;;;;5045442;28;20048;-78
2022/03/09 05:44:39;;;;;;;11.65;5.40;;;-0.60;99.90;;;;;;5066058;28;20470;-78
2022/03/09 05:47:05;;;;;;;10.55;5.50;;;-0.70;99.90;;;;;;5066662;28;20056;-78
2022/03/09 05:49:31;;;;;;;11.98;5.85;;;-0.70;99.90;;;;;;5065410;28;20049;-78
2022/03/09 05:51:56;;;;;;;11.98;6.20;;;-0.70;99.90;;;;;;5067344;28;20037;-77
2022/03/09 05:54:22;;;;;;;10.50;6.00;;;-0.70;99.90;;;;;;5045708;28;20092;-78
2022/03/09 05:56:48;;;;;;;13.25;5.75;;;-0.80;99.90;;;;;;5048270;28;20044;-78
2022/03/09 05:59:13;;;;;;;11.45;5.97;;;-0.80;99.90;;;;;;5043217;28;20056;-77
2022/03/09 06:01:39;;;;;;;10.77;5.47;;;-0.80;99.90;;;;;;5051499;28;20049;-77
2022/03/09 06:04:05;;;;;;;11.90;6.60;;;-0.80;99.90;;;;;;5070654;28;20045;-77
2022/03/09 06:06:31;;;;;;;13.35;5.78;;;-0.80;99.90;;;;;;5069022;28;20032;-78
2022/03/09 06:08:58;;;;;;;10.40;6.50;;;-0.60;99.90;;;;;;5049339;28;20047;-78
2022/03/09 06:11:24;;;;;;;14.57;6.55;;;-0.80;99.90;;;;;;5044661;28;20131;-78
2022/03/09 06:13:50;;;;;;;11.70;5.88;;;-0.90;99.90;;;;;;5046678;28;20492;-78
2022/03/09 06:16:16;;;;;;;10.93;5.55;;;-0.80;99.90;;;;;;5040202;28;20036;-78
2022/03/09 06:18:42;;;;;;;16.30;10.60;;;-0.80;99.90;;;;;;5067091;28;20048;-78
2022/03/09 06:21:07;;;;;;;12.32;7.18;;;-0.80;99.90;;;;;;5068335;28;20552;-78
2022/03/09 06:23:33;;;;;;;10.70;6.28;;;-0.80;99.90;;;;;;5067032;28;20033;-78
2022/03/09 06:25:59;;;;;;;12.32;6.82;;;-0.80;99.90;;;;;;5063090;28;20140;-78
2022/03/09 06:28:25;;;;;;;13.57;6.07;;;-0.80;99.90;;;;;;5057012;28;20764;-78
2022/03/09 06:30:51;;;;;;;13.52;6.93;;;-0.80;99.90;;;;;;5062001;28;20095;-78
2022/03/09 06:33:17;;;;;;;12.68;6.38;;;-0.80;99.90;;;;;;5047203;28;20048;-78
2022/03/09 06:35:43;;;;;;;11.50;5.97;;;-0.80;99.90;;;;;;5039609;28;20059;-77
2022/03/09 06:38:09;;;;;;;13.07;6.75;;;-0.80;99.90;;;;;;5061750;28;20037;-78
2022/03/09 06:40:35;;;;;;;17.80;6.53;;;-0.80;99.90;;;;;;5048561;28;20052;-80
2022/03/09 06:43:01;;;;;;;12.48;6.60;;;-0.80;99.90;;;;;;5044916;28;20880;-79
2022/03/09 06:45:28;;;;;;;12.93;6.40;;;-0.80;99.90;;;;;;5046770;28;20049;-79
2022/03/09 06:47:54;;;;;;;13.57;6.82;;;-0.80;99.90;;;;;;5067300;28;20395;-79
2022/03/09 06:50:19;;;;;;;13.63;6.10;;;-0.80;99.90;;;;;;5040008;28;20071;-79
2022/03/09 06:52:45;;;;;;;13.68;7.03;;;-0.70;99.90;;;;;;5044831;28;20037;-79
2022/03/09 06:55:12;;;;;;;10.02;6.15;;;-0.70;99.90;;;;;;5058353;28;20078;-78
2022/03/09 06:57:39;;;;;;;13.45;7.68;;;-0.60;99.90;;;;;;5047013;28;20055;-83
2022/03/09 07:00:07;;;;;;;13.00;6.35;;;-0.60;99.90;;;;;;5066748;28;20794;-83
2022/03/09 07:02:33;;;;;;;14.07;7.03;;;-0.50;99.90;;;;;;5063047;28;20079;-78
2022/03/09 07:04:58;;;;;;;12.65;6.55;;;-0.50;99.90;;;;;;5066370;28;20068;-81
2022/03/09 07:07:24;;;;;;;16.58;6.85;;;-0.40;99.90;;;;;;5063985;28;20043;-78
2022/03/09 07:09:49;;;;;;;14.85;6.30;;;-0.40;99.90;;;;;;5066040;28;20050;-79
2022/03/09 07:12:15;;;;;;;13.73;6.82;;;-0.30;99.90;;;;;;5058562;28;20457;-78
2022/03/09 07:14:41;;;;;;;12.82;6.80;;;-0.20;99.90;;;;;;5049170;28;20394;-81
2022/03/09 07:17:06;;;;;;;14.70;6.78;;;-0.20;99.90;;;;;;5064849;28;20040;-81
2022/03/09 07:19:32;;;;;;;14.10;7.05;;;-0.10;99.90;;;;;;5040045;28;20508;-77
2022/03/09 07:21:57;;;;;;;14.77;5.93;;;0.00;99.90;;;;;;5067800;28;20439;-77
2022/03/09 07:24:23;;;;;;;12.73;6.82;;;0.10;99.90;;;;;;5069481;28;20044;-77
2022/03/09 07:26:49;;;;;;;14.18;6.93;;;0.20;99.90;;;;;;5068820;28;20057;-78
2022/03/09 07:29:17;;;;;;;15.90;6.45;;;0.30;99.90;;;;;;5069481;28;20032;-77
2022/03/09 07:31:42;;;;;;;14.05;6.35;;;0.40;99.90;;;;;;5059512;28;20040;-77
2022/03/09 07:34:08;;;;;;;12.40;6.25;;;0.50;99.90;;;;;;5067982;28;20041;-77
2022/03/09 07:36:33;;;;;;;10.00;5.65;;;0.60;99.90;;;;;;5060030;28;20049;-78
2022/03/09 07:38:59;;;;;;;14.32;6.45;;;0.70;99.90;;;;;;5045130;28;20044;-78
2022/03/09 07:41:24;;;;;;;13.98;7.10;;;0.80;99.90;;;;;;5043249;28;20087;-78
2022/03/09 07:43:50;;;;;;;10.93;6.15;;;0.90;99.90;;;;;;5045558;28;20037;-78
2022/03/09 07:46:15;;;;;;;14.10;6.45;;;1.00;99.90;;;;;;5065674;28;20040;-78
2022/03/09 07:48:41;;;;;;;13.40;6.50;;;1.10;99.90;;;;;;5065913;28;20053;-78
2022/03/09 07:51:07;;;;;;;13.65;6.32;;;1.20;99.90;;;;;;5061128;28;20040;-78
2022/03/09 07:53:32;;;;;;;11.57;5.72;;;1.30;99.90;;;;;;5044850;28;20043;-78
2022/03/09 07:55:58;;;;;;;23.23;7.47;;;1.40;99.90;;;;;;5057524;28;20052;-78
2022/03/09 07:58:23;;;;;;;10.90;5.32;;;1.40;99.90;;;;;;5059233;28;20033;-78
2022/03/09 08:00:49;;;;;;;13.13;5.95;;;1.70;99.90;;;;;;5040945;28;20514;-78
2022/03/09 08:03:14;;;;;;;15.45;5.90;;;1.70;99.90;;;;;;5057701;28;20041;-77
2022/03/09 08:05:40;;;;;;;12.38;6.00;;;1.80;99.90;;;;;;5040319;28;20119;-76
2022/03/09 08:08:05;;;;;;;9.52;5.00;;;1.90;99.90;;;;;;5057870;28;20115;-76
2022/03/09 08:10:31;;;;;;;11.95;5.60;;;2.00;99.90;;;;;;5062282;28;20737;-76
2022/03/09 08:12:56;;;;;;;11.70;5.60;;;2.10;99.90;;;;;;5043370;28;20488;-76
2022/03/09 08:15:22;;;;;;;14.00;6.97;;;2.20;99.90;;;;;;5058482;28;20044;-76
2022/03/09 08:17:48;;;;;;;11.35;5.70;;;2.40;99.90;;;;;;5059397;28;20041;-76
2022/03/09 08:20:13;;;;;;;11.45;6.30;;;2.50;99.90;;;;;;5065646;28;21148;-76
2022/03/09 08:22:42;;;;;;;10.65;5.93;;;2.60;99.90;;;;;;5055126;28;20538;-79
2022/03/09 08:25:08;;;;;;;10.73;5.82;;;2.70;99.90;;;;;;5065419;28;20048;-79
2022/03/09 08:27:34;;;;;;;9.68;5.13;;;2.80;99.90;;;;;;5059453;28;20124;-79
2022/03/09 08:29:59;;;;;;;15.52;5.72;;;2.90;99.90;;;;;;5040424;28;20075;-75
2022/03/09 08:32:25;;;;;;;10.15;5.45;;;3.00;99.90;;;;;;5046191;28;20047;-78
2022/03/09 08:34:51;;;;;;;10.90;4.90;;;3.20;99.90;;;;;;5065336;28;20067;-79
2022/03/09 08:37:17;;;;;;;9.75;5.22;;;3.30;99.90;;;;;;5060223;28;20052;-73
2022/03/09 08:39:48;;;;;;;15.90;6.78;;;3.40;99.90;;;;;;5058770;28;20037;-77
2022/03/09 08:42:14;;;;;;;10.75;5.85;;;3.70;99.90;;;;;;5042912;28;20057;-70
2022/03/09 08:44:39;;;;;;;12.60;5.78;;;3.60;99.90;;;;;;5065148;28;20036;-72
2022/03/09 08:47:06;;;;;;;12.90;6.10;;;3.60;99.90;;;;;;5055925;28;20092;-75
2022/03/09 08:49:33;;;;;;;11.48;5.40;;;3.80;99.90;;;;;;5055396;28;20056;-72
2022/03/09 08:51:59;;;;;;;13.30;6.03;;;3.80;99.90;;;;;;5048612;28;20036;-72
2022/03/09 08:54:25;;;;;;;16.08;6.03;;;4.00;99.90;;;;;;5050366;28;20058;-73
2022/03/09 08:56:51;;;;;;;9.88;5.32;;;4.10;99.90;;;;;;5041722;28;20040;-72
2022/03/09 08:59:16;;;;;;;11.60;5.93;;;4.20;99.90;;;;;;5044023;28;20057;-72
2022/03/09 09:01:42;;;;;;;9.80;5.45;;;4.30;99.90;;;;;;5061236;28;20147;-72
2022/03/09 09:04:08;;;;;;;15.50;5.65;;;4.40;99.90;;;;;;5051116;28;20047;-72
2022/03/09 09:06:33;;;;;;;11.68;5.40;;;4.50;99.90;;;;;;5068851;28;20105;-75
2022/03/09 09:08:59;;;;;;;11.88;6.25;;;4.60;99.90;;;;;;5043759;28;20080;-72
2022/03/09 09:11:25;;;;;;;10.23;5.72;;;4.70;99.90;;;;;;5061590;28;20441;-71
2022/03/09 09:13:50;;;;;;;9.80;5.28;;;4.70;99.90;;;;;;5065632;28;20187;-73
2022/03/09 09:16:16;;;;;;;11.00;5.53;;;4.90;99.90;;;;;;5064014;28;20570;-73
2022/03/09 09:18:43;;;;;;;9.68;5.60;;;5.00;99.90;;;;;;5068093;28;20495;-73
2022/03/09 09:21:10;;;;;;;12.45;5.70;;;5.10;99.90;;;;;;5049453;28;20059;-73
2022/03/09 09:23:38;;;;;;;10.57;5.57;;;5.30;99.90;;;;;;5071391;28;20135;-73
2022/03/09 09:26:04;;;;;;;12.52;5.45;;;5.50;99.90;;;;;;5073768;28;20036;-73
2022/03/09 09:28:30;;;;;;;9.30;5.13;;;5.70;99.90;;;;;;5072121;28;20091;-73
2022/03/09 09:30:56;;;;;;;10.60;5.15;;;5.90;99.90;;;;;;5066916;28;20544;-73
2022/03/09 09:33:22;;;;;;;9.80;5.13;;;6.30;98.80;;;;;;5047527;28;20055;-73
2022/03/09 09:35:48;;;;;;;10.75;5.03;;;6.40;99.10;;;;;;5071753;28;20052;-73
2022/03/09 09:38:13;;;;;;;12.07;5.47;;;6.60;96.40;;;;;;5071476;28;20496;-73
2022/03/09 09:40:41;;;;;;;12.57;5.38;;;6.80;95.10;;;;;;5066368;28;20049;-73
2022/03/09 09:43:10;;;;;;;11.32;5.15;;;7.00;95.90;;;;;;5050849;28;20083;-73
2022/03/09 09:45:36;;;;;;;8.90;5.20;;;7.20;94.80;;;;;;5070395;28;20082;-73
2022/03/09 09:48:05;;;;;;;13.30;5.97;;;7.30;94.20;;;;;;5053568;28;20045;-73
2022/03/09 09:50:31;;;;;;;11.80;5.97;;;7.40;92.60;;;;;;5048236;28;20498;-73
2022/03/09 09:52:56;;;;;;;10.95;5.65;;;7.50;92.50;;;;;;5070948;28;20091;-73
2022/03/09 09:55:26;;;;;;;11.23;5.55;;;7.60;92.10;;;;;;5069022;28;20095;-73
2022/03/09 09:57:52;;;;;;;9.88;5.63;;;7.70;90.90;;;;;;5049826;28;20045;-73
2022/03/09 10:00:18;;;;;;;12.20;5.90;;;7.80;90.90;;;;;;5066189;28;20045;-73
2022/03/09 10:02:44;;;;;;;11.50;6.25;;;7.90;90.20;;;;;;5049953;28;20078;-73
2022/03/09 10:05:13;;;;;;;10.00;5.78;;;8.00;90.00;;;;;;5040708;28;20439;-73
2022/03/09 10:08:04;;;;;;;10.40;5.65;;;8.10;88.70;;;;;;5068929;28;20037;-73
2022/03/09 10:10:35;;;;;;;14.20;6.47;;;8.20;87.80;;;;;;5064637;28;20079;-73
2022/03/09 10:13:21;;;;;;;12.35;6.20;;;8.30;89.70;;;;;;5060035;28;20033;-73
2022/03/09 10:16:05;;;;;;;11.45;5.97;;;8.50;88.20;;;;;;5073279;28;20052;-73
2022/03/09 10:18:31;;;;;;;11.23;6.80;;;8.60;88.80;;;;;;5054486;28;20046;-73
2022/03/09 10:21:11;;;;;;;11.05;6.68;;;8.80;84.00;;;;;;5038550;28;20052;-73
2022/03/09 10:23:57;;;;;;;11.45;5.70;;;8.80;81.40;;;;;;5051074;28;20040;-73
2022/03/09 10:26:25;;;;;;;10.52;5.88;;;9.00;81.30;;;;;;5070394;28;20044;-73
2022/03/09 10:28:56;;;;;;;11.43;6.07;;;9.00;82.30;;;;;;5044996;28;20091;-73
2022/03/09 10:31:45;;;;;;;9.75;5.65;;;9.20;83.20;;;;;;5067229;28;20040;-79
2022/03/09 10:34:19;;;;;;;12.23;6.72;;;9.30;78.60;;;;;;5057127;28;20036;-80
2022/03/09 10:37:11;;;;;;;;;;;9.40;77.30;;;;;;5068868;28;20044;-79
2022/03/09 10:39:38;;;;;;;12.40;6.32;;;9.50;75.70;;;;;;5044571;28;19928;-76
2022/03/09 10:42:23;;;;;;;12.15;6.63;;;9.60;79.60;;;;;;5065739;28;20036;-77
2022/03/09 10:44:50;;;;;;;13.77;6.25;;;9.80;77.00;;;;;;5063803;28;20480;-79
2022/03/09 10:47:34;;;;;;;12.32;6.38;;;9.90;79.20;;;;;;5046450;28;20044;-77
2022/03/09 10:50:15;;;;;;;10.45;6.13;;;10.10;74.90;;;;;;5057750;28;20088;-77
2022/03/09 10:52:41;;;;;;;13.40;6.55;;;10.30;73.40;;;;;;5067111;28;20079;-77
2022/03/09 10:55:26;;;;;;;11.93;6.32;;;10.30;74.20;;;;;;5058575;28;20037;-76
2022/03/09 10:58:14;;;;;;;12.27;7.00;;;10.50;69.60;;;;;;5070032;28;20504;-77
2022/03/09 11:00:51;;;;;;;10.68;6.50;;;10.60;69.70;;;;;;5047346;28;20060;-77
2022/03/09 11:03:23;;;;;;;11.95;6.38;;;10.70;70.80;;;;;;5049792;28;20052;-77
2022/03/09 11:05:54;;;;;;;10.50;6.10;;;10.90;72.60;;;;;;5068058;28;20091;-77
2022/03/09 11:08:24;;;;;;;12.52;6.63;;;11.00;67.60;;;;;;5048756;28;20041;-77
2022/03/09 11:10:50;;;;;;;10.35;5.78;;;11.10;70.90;;;;;;5064632;28;20059;-78
2022/03/09 11:13:17;;;;;;;12.07;6.38;;;11.20;69.20;;;;;;5059891;28;20044;-78
2022/03/09 11:15:44;;;;;;;10.60;6.45;;;11.30;70.50;;;;;;5063045;28;20049;-78
2022/03/09 11:18:21;;;;;;;10.27;6.60;;;11.30;68.40;;;;;;5045735;28;20045;-78
2022/03/09 11:20:49;;;;;;;14.73;7.05;;;11.50;68.10;;;;;;5062341;28;20612;-79
2022/03/09 11:23:16;;;;;;;12.02;6.43;;;11.50;65.40;;;;;;5058940;28;20373;-79
2022/03/09 11:25:57;;;;;;;9.85;6.30;;;11.60;67.10;;;;;;5061480;28;20701;-78
2022/03/09 11:28:24;;;;;;;9.07;6.47;;;11.80;65.80;;;;;;5047657;28;20052;-78
2022/03/09 11:31:02;;;;;;;12.00;7.50;;;11.80;65.40;;;;;;5064120;28;20121;-78
2022/03/09 11:33:46;;;;;;;13.32;7.05;;;11.90;65.30;;;;;;5071012;28;20036;-78
2022/03/09 11:36:21;;;;;;;14.75;7.03;;;12.10;66.30;;;;;;5068734;28;20044;-78
2022/03/09 11:39:05;;;;;;;14.07;7.38;;;12.20;69.00;;;;;;5066461;28;20048;-78
2022/03/09 11:41:39;;;;;;;9.88;6.43;;;12.30;68.80;;;;;;5045852;28;20506;-78
2022/03/09 11:44:20;;;;;;;11.95;6.90;;;12.30;66.70;;;;;;5044817;28;20094;-78
2022/03/09 11:47:01;;;;;;;10.32;7.25;;;12.40;66.70;;;;;;5048305;28;20063;-75
2022/03/09 11:49:36;;;;;;;11.55;7.03;;;12.40;66.20;;;;;;5033271;28;20055;-76
2022/03/09 11:52:16;;;;;;;12.20;7.07;;;12.50;66.00;;;;;;5045759;28;20049;-75
2022/03/09 11:54:55;;;;;;;11.25;6.95;;;12.50;65.20;;;;;;5045033;28;20051;-75
2022/03/09 11:57:24;;;;;;;12.10;6.68;;;12.50;66.00;;;;;;5058433;28;20068;-75
2022/03/09 11:59:58;;;;;;;16.38;7.60;;;12.60;67.00;;;;;;5042884;28;20051;-75
2022/03/09 12:02:43;;;;;;;10.98;7.05;;;12.60;65.00;;;;;;5038782;28;20052;-75
2022/03/09 12:05:25;;;;;;;12.07;7.53;;;12.70;64.30;;;;;;5037704;28;20075;-75
2022/03/09 12:08:11;;;;;;;10.88;6.85;;;12.70;63.20;;;;;;5051044;28;20044;-75
2022/03/09 12:10:54;;;;;;;14.32;7.28;;;12.80;63.70;;;;;;5046399;28;20059;-75
2022/03/09 12:13:31;;;;;;;12.07;6.57;;;12.80;63.30;;;;;;5059909;28;20511;-75
2022/03/09 12:16:14;;;;;;;11.70;7.65;;;12.80;62.60;;;;;;5058135;28;20403;-76
2022/03/09 12:19:01;;;;;;;11.27;7.40;;;12.80;63.20;;;;;;5057570;28;20036;-76
2022/03/09 12:21:26;;;;;;;10.75;6.93;;;12.90;65.40;;;;;;5061134;28;20629;-75
2022/03/09 12:24:04;;;;;;;12.23;7.20;;;13.00;64.00;;;;;;5049708;28;20045;-75
2022/03/09 12:26:44;;;;;;;11.32;6.45;;;12.70;64.00;;;;;;5044372;28;20052;-75
2022/03/09 12:29:28;;;;;;;13.15;7.50;;;13.20;64.10;;;;;;5044670;28;20080;-75
2022/03/09 12:32:05;;;;;;;12.23;7.47;;;13.20;62.00;;;;;;5038711;28;20385;-75
2022/03/09 12:34:42;;;;;;;14.40;6.97;;;13.20;63.00;;;;;;5041525;28;20135;-76
2022/03/09 12:37:17;;;;;;;12.77;7.40;;;13.30;63.60;;;;;;5045892;28;20037;-75
2022/03/09 12:39:57;;;;;;;12.23;7.57;;;13.40;62.40;;;;;;5049177;28;20582;-75
2022/03/09 12:42:23;;;;;;;11.60;7.75;;;13.50;62.30;;;;;;5044156;28;20094;-75
2022/03/09 12:44:50;;;;;;;13.00;7.55;;;13.50;62.80;;;;;;5044494;28;20048;-75
2022/03/09 12:47:18;;;;;;;14.15;7.07;;;13.60;61.60;;;;;;5057422;28;20052;-75
2022/03/09 12:49:46;;;;;;;11.20;7.70;;;13.70;61.70;;;;;;5069250;28;20476;-75
2022/03/09 12:52:21;;;;;;;11.50;7.88;;;13.80;60.40;;;;;;5049830;28;21530;-75